Time;durP1;ratioP1;P1;durP2;ratioP2;P2;SDS_P1;SDS_P2;PMS_P1;PMS_P2;Temp;Humidity;BMP_temperature;BMP_pressure;BME280_temperature;BME280_humidity;BME280_pressure;Samples;Min_cycle;Max_cycle;Signal;HPM_P1;HPM_P2
2022/12/05 00:01:35;;;;;;;5.35;1.65;;;;;;;-11.38;100.00;102878.74;1704494;83;21056;-65
2022/12/05 00:04:07;;;;;;;3.72;1.55;;;;;;;-11.42;100.00;102879.53;1679283;84;21002;-63
2022/12/05 00:06:34;;;;;;;6.70;1.67;;;;;;;-11.42;100.00;102877.85;1680408;85;21519;-63
2022/12/05 00:09:03;;;;;;;5.20;1.55;;;;;;;-11.43;100.00;102875.33;1679666;85;21213;-68
2022/12/05 00:11:32;;;;;;;4.30;1.57;;;;;;;-11.45;100.00;102875.28;1679816;85;21263;-64
2022/12/05 00:14:00;;;;;;;4.37;1.57;;;;;;;-11.46;100.00;102867.73;1679860;85;21568;-63
2022/12/05 00:16:29;;;;;;;4.95;1.55;;;;;;;-11.45;100.00;102866.48;1680104;85;20931;-63
2022/12/05 00:18:59;;;;;;;6.45;1.98;;;;;;;-11.47;100.00;102871.08;1680028;85;20990;-66
2022/12/05 00:21:28;;;;;;;5.90;2.05;;;;;;;-11.51;100.00;102867.67;1679774;85;21335;-66
2022/12/05 00:23:56;;;;;;;6.78;1.30;;;;;;;-11.55;100.00;102869.30;1679916;85;21332;-62
2022/12/05 00:26:24;;;;;;;4.05;1.35;;;;;;;-11.58;100.00;102857.92;1679993;85;21570;-63
2022/12/05 00:28:52;;;;;;;5.25;1.55;;;;;;;-11.58;100.00;102847.86;1679992;84;21545;-62
2022/12/05 00:31:21;;;;;;;3.05;1.40;;;;;;;-11.62;100.00;102872.54;1680608;83;20966;-65
2022/12/05 00:33:48;;;;;;;3.60;1.20;;;;;;;-11.62;100.00;102859.96;1688253;84;21368;-62
2022/12/05 00:36:23;;;;;;;4.20;1.60;;;;;;;-11.63;100.00;102859.92;1686220;84;21499;-62
2022/12/05 00:38:50;;;;;;;3.40;1.10;;;;;;;-11.67;100.00;102865.31;1685688;84;21492;-65
2022/12/05 00:41:21;;;;;;;5.15;1.85;;;;;;;-11.65;100.00;102852.36;1687116;84;21034;-62
2022/12/05 00:43:48;;;;;;;5.47;1.80;;;;;;;-11.67;100.00;102845.61;1658849;86;21133;-62
2022/12/05 00:46:19;;;;;;;3.70;1.17;;;;;;;-11.68;100.00;102842.25;1688164;84;21211;-62
2022/12/05 00:48:46;;;;;;;4.37;1.25;;;;;;;-11.71;100.00;102845.97;1687456;84;21042;-65
2022/12/05 00:51:16;;;;;;;5.12;1.45;;;;;;;-11.71;100.00;102839.68;1687170;84;20936;-63
2022/12/05 00:53:44;;;;;;;4.08;1.10;;;;;;;-11.71;100.00;102838.84;1688390;84;21079;-62
2022/12/05 00:56:17;;;;;;;5.65;1.25;;;;;;;-11.72;100.00;102836.74;1688114;84;20938;-62
2022/12/05 00:58:45;;;;;;;7.30;1.98;;;;;;;-11.73;100.00;102848.89;1687797;84;21875;-67
2022/12/05 01:01:15;;;;;;;3.20;0.98;;;;;;;-11.73;100.00;102842.60;1687442;84;20966;-63
2022/12/05 01:03:44;;;;;;;5.30;1.50;;;;;;;-11.74;100.00;102829.98;1685431;84;20983;-63
2022/12/05 01:06:12;;;;;;;6.05;1.67;;;;;;;-11.76;100.00;102836.27;1647749;86;20955;-62
2022/12/05 01:08:39;;;;;;;6.35;1.62;;;;;;;-11.78;100.00;102839.16;1661705;85;20908;-66
2022/12/05 01:11:07;;;;;;;3.12;1.30;;;;;;;-11.80;100.00;102840.81;1660809;86;22365;-62
2022/12/05 01:13:34;;;;;;;4.87;1.25;;;;;;;-11.80;100.00;102837.05;1661563;86;21057;-62
2022/12/05 01:16:03;;;;;;;4.03;1.65;;;;;;;-11.80;100.00;102837.05;1661505;86;21013;-62
2022/12/05 01:18:30;;;;;;;5.05;1.67;;;;;;;-11.82;100.00;102842.06;1661590;86;21511;-62
2022/12/05 01:20:58;;;;;;;5.80;1.57;;;;;;;-11.83;100.00;102830.28;1672417;84;21429;-65
2022/12/05 01:23:25;;;;;;;4.65;1.80;;;;;;;-11.84;100.00;102839.12;1678703;84;21131;-62
2022/12/05 01:25:53;;;;;;;4.55;1.20;;;;;;;-11.84;100.00;102837.86;1678424;84;20979;-62
2022/12/05 01:28:22;;;;;;;3.72;1.17;;;;;;;-11.87;100.00;102836.13;1677839;84;21018;-61
2022/12/05 01:30:50;;;;;;;6.12;1.77;;;;;;;-11.88;100.00;102829.84;1661471;85;21520;-67
2022/12/05 01:33:17;;;;;;;3.95;1.27;;;;;;;-11.91;100.00;102834.81;1660621;86;21172;-63
2022/12/05 01:35:46;;;;;;;5.58;1.25;;;;;;;-11.92;100.00;102834.39;1661521;86;21837;-63
2022/12/05 01:38:14;;;;;;;4.78;1.50;;;;;;;-11.94;100.00;102834.76;1661545;85;21063;-63
2022/12/05 01:40:41;;;;;;;3.92;1.55;;;;;;;-11.95;100.00;102837.69;1661640;86;20903;-62
2022/12/05 01:43:13;;;;;;;4.28;1.22;;;;;;;-11.95;100.00;102836.84;1660456;86;21425;-66
2022/12/05 01:45:42;;;;;;;4.42;1.40;;;;;;;-11.96;100.00;102820.08;1661469;85;21093;-62
2022/12/05 01:48:20;;;;;;;5.85;1.42;;;;;;;-11.97;100.00;102835.55;1661545;86;21260;-62
2022/12/05 01:50:47;;;;;;;3.87;1.20;;;;;;;-11.97;100.00;102835.97;1660324;86;20955;-66
2022/12/05 01:53:15;;;;;;;3.70;1.10;;;;;;;-11.99;100.00;102828.83;1661174;86;21014;-62
2022/12/05 01:55:42;;;;;;;4.55;1.12;;;;;;;-12.01;100.00;102826.27;1661587;86;21117;-62
2022/12/05 01:58:10;;;;;;;2.47;1.00;;;;;;;-11.89;100.00;102825.60;1661405;85;20950;-63
2022/12/05 02:00:39;;;;;;;5.17;1.05;;;;;;;-11.89;100.00;102825.60;1660509;85;21219;-61
2022/12/05 02:03:08;;;;;;;4.37;1.32;;;;;;;-12.02;100.00;102837.16;1660900;85;20954;-63
2022/12/05 02:05:36;;;;;;;7.22;1.32;;;;;;;-12.06;100.00;102827.45;1678430;85;20951;-62
2022/12/05 02:08:07;;;;;;;6.83;1.60;;;;;;;-12.09;100.00;102821.12;1682005;84;20955;-66
2022/12/05 02:10:42;;;;;;;3.35;1.22;;;;;;;-12.09;100.00;102823.63;1700081;84;20898;-63
2022/12/05 02:13:31;;;;;;;5.67;1.57;;;;;;;-12.09;100.00;102825.30;1699689;84;21955;-62
2022/12/05 02:16:05;;;;;;;3.15;1.27;;;;;;;-12.10;100.00;102822.36;1688920;84;20998;-64
2022/12/05 02:18:46;;;;;;;2.87;1.05;;;;;;;-12.15;100.00;102822.30;1679495;85;21088;-65
2022/12/05 02:21:39;;;;;;;10.28;1.60;;;;;;;-12.17;100.00;102818.90;1647958;85;20994;-62
2022/12/05 02:24:46;;;;;;;4.45;1.77;;;;;;;-12.17;100.00;102816.39;1664224;85;21087;-63
2022/12/05 02:27:39;;;;;;;5.85;1.42;;;;;;;-12.16;100.00;102816.81;1679414;85;21147;-63
2022/12/05 02:30:19;;;;;;;5.95;1.40;;;;;;;-12.20;100.00;102817.59;1680175;85;20955;-63
2022/12/05 02:33:03;;;;;;;4.95;1.07;;;;;;;-12.19;100.00;102815.95;1679573;85;20951;-62
2022/12/05 02:35:45;;;;;;;3.27;0.85;;;;;;;-12.21;100.00;102814.64;1679885;85;21151;-62
2022/12/05 02:38:33;;;;;;;5.05;1.72;;;;;;;-12.23;100.00;102818.82;1679708;83;21078;-65
2022/12/05 02:41:32;;;;;;;5.17;1.72;;;;;;;-12.26;100.00;102814.58;1676727;85;21186;-64
2022/12/05 02:44:13;;;;;;;4.05;1.37;;;;;;;-12.26;100.00;102813.73;1676272;85;21025;-65
2022/12/05 02:46:40;;;;;;;3.00;1.10;;;;;;;-12.24;100.00;102812.08;1654922;85;21021;-66
2022/12/05 02:49:10;;;;;;;3.33;1.15;;;;;;;-12.26;100.00;102809.97;1675767;85;21059;-69
2022/12/05 02:51:51;;;;;;;5.03;1.40;;;;;;;-12.26;100.00;102813.73;1676527;85;21103;-64
2022/12/05 02:54:25;;;;;;;1.87;0.85;;;;;;;-12.28;100.00;102810.34;1676057;85;22742;-63
2022/12/05 02:56:52;;;;;;;3.62;1.67;;;;;;;-12.30;100.00;102809.48;1676422;85;20993;-65
2022/12/05 02:59:20;;;;;;;5.53;1.85;;;;;;;-12.31;100.00;102804.88;1677046;84;20865;-61
2022/12/05 03:01:48;;;;;;;9.20;1.80;;;;;;;-12.32;100.00;102803.57;1679222;85;20987;-63
2022/12/05 03:04:16;;;;;;;5.12;1.70;;;;;;;-12.33;100.00;102801.47;1680670;85;21045;-61
2022/12/05 03:07:03;;;;;;;5.95;1.60;;;;;;;-12.30;100.00;102806.97;1694728;84;22330;-61
2022/12/05 03:09:37;;;;;;;6.05;1.52;;;;;;;-12.32;100.00;102794.77;1700052;83;21021;-61
2022/12/05 03:12:17;;;;;;;7.00;1.90;;;;;;;-12.32;100.00;102806.92;1705421;83;20961;-61
2022/12/05 03:14:48;;;;;;;4.40;1.45;;;;;;;-12.31;100.00;102793.95;1705083;83;20950;-61
2022/12/05 03:17:22;;;;;;;8.05;2.05;;;;;;;-12.32;100.00;102793.52;1704865;83;21016;-63
2022/12/05 03:20:06;;;;;;;4.45;1.00;;;;;;;-12.34;100.00;102797.28;1704333;84;21175;-63
2022/12/05 03:22:55;;;;;;;5.15;1.65;;;;;;;-12.36;100.00;102786.75;1686655;83;21013;-62
2022/12/05 03:25:24;;;;;;;4.17;1.12;;;;;;;-12.36;100.00;102790.11;1678132;84;21098;-61
2022/12/05 03:27:56;;;;;;;4.55;1.52;;;;;;;-12.37;100.00;102794.70;1677648;84;21057;-61
2022/12/05 03:30:23;;;;;;;5.92;1.60;;;;;;;-12.35;100.00;102795.59;1677449;84;21022;-62
2022/12/05 03:33:14;;;;;;;6.87;1.15;;;;;;;-12.35;100.00;102799.75;1674957;84;21080;-63
2022/12/05 03:36:03;;;;;;;6.42;1.77;;;;;;;-12.36;100.00;102798.06;1677856;84;21516;-63
2022/12/05 03:39:02;;;;;;;6.25;1.75;;;;;;;-12.36;100.00;102797.65;1686045;83;21147;-61
2022/12/05 03:41:44;;;;;;;3.92;1.40;;;;;;;-12.34;100.00;102801.05;1677520;84;21077;-67
2022/12/05 03:44:35;;;;;;;3.37;1.10;;;;;;;-12.31;100.00;102804.00;1677823;84;20978;-67
2022/12/05 03:47:35;;;;;;;3.85;1.50;;;;;;;-12.28;100.00;102804.05;1679725;83;21268;-63
2022/12/05 03:50:16;;;;;;;3.80;1.12;;;;;;;-12.33;100.00;102805.24;1682352;83;21439;-63
2022/12/05 03:52:48;;;;;;;5.00;1.52;;;;;;;-12.31;100.00;102800.23;1675969;84;20991;-62
2022/12/05 03:55:15;;;;;;;4.65;1.80;;;;;;;-12.32;100.00;102803.57;1679646;83;21544;-63
2022/12/05 03:57:57;;;;;;;4.17;1.30;;;;;;;-12.31;100.00;102807.77;1678200;84;20954;-63
2022/12/05 04:00:25;;;;;;;3.72;1.30;;;;;;;-12.35;100.00;102803.52;1681463;84;21309;-62
2022/12/05 04:03:09;;;;;;;3.92;1.22;;;;;;;-12.38;100.00;102807.26;1674901;84;21096;-62
2022/12/05 04:05:53;;;;;;;3.27;1.32;;;;;;;-12.38;100.00;102807.26;1670553;84;21029;-61
2022/12/05 04:08:30;;;;;;;3.58;1.42;;;;;;;-12.38;100.00;102809.77;1670297;85;21634;-63
2022/12/05 04:11:01;;;;;;;4.87;1.52;;;;;;;-12.40;100.00;102813.50;1672467;85;21524;-62
2022/12/05 04:13:42;;;;;;;3.92;1.22;;;;;;;-12.41;100.00;102805.95;1671318;84;21362;-61
2022/12/05 04:19:06;;;;;;;3.15;1.00;;;;;;;-12.41;100.00;102806.79;1707953;82;21067;-63
2022/12/05 04:21:39;;;;;;;4.08;1.27;;;;;;;-12.41;100.00;102816.00;1668954;84;20990;-62
2022/12/05 04:27:21;;;;;;;3.62;1.20;;;;;;;-12.41;100.00;102804.28;1671831;83;21175;-65
2022/12/05 04:29:57;;;;;;;5.47;1.25;;;;;;;-12.40;100.00;102807.22;1682502;82;21109;-61
2022/12/05 04:32:25;;;;;;;3.33;1.17;;;;;;;-12.40;100.00;102807.62;1701518;83;21173;-64
2022/12/05 04:34:56;;;;;;;4.17;1.07;;;;;;;-12.34;100.00;102806.08;1672699;84;22577;-61
2022/12/05 04:37:25;;;;;;;;;;;;;;;-12.37;100.00;102800.15;1690960;84;21082;-64
2022/12/05 04:40:02;;;;;;;4.17;1.42;;;;;;;-12.42;100.00;102798.82;1678136;84;21166;-61
2022/12/05 04:42:31;;;;;;;3.27;1.27;;;;;;;-12.45;100.00;102800.02;1678308;85;20942;-62
2022/12/05 04:45:03;;;;;;;5.22;1.77;;;;;;;-12.41;100.00;102800.92;1657204;85;21110;-60
2022/12/05 04:47:34;;;;;;;5.35;1.47;;;;;;;-12.42;100.00;102806.36;1713798;83;21025;-61
2022/12/05 04:50:01;;;;;;;6.00;1.55;;;;;;;-12.45;100.00;102805.05;1681030;85;21074;-64
2022/12/05 04:52:29;;;;;;;4.75;1.75;;;;;;;-12.45;100.00;102800.44;1715910;83;21136;-61
2022/12/05 04:55:16;;;;;;;4.47;1.50;;;;;;;-12.46;100.00;102797.46;1713487;83;20990;-62
2022/12/05 04:58:09;;;;;;;5.17;1.52;;;;;;;-12.46;100.00;102796.20;1713509;83;21062;-66
2022/12/05 05:01:07;;;;;;;4.90;1.55;;;;;;;-12.43;100.00;102801.29;1713338;83;21552;-64
2022/12/05 05:03:51;;;;;;;6.15;2.08;;;;;;;-12.43;100.00;102805.06;1710512;83;21521;-60
2022/12/05 05:06:20;;;;;;;3.90;1.40;;;;;;;-12.44;100.00;102805.89;1704512;83;21199;-62
2022/12/05 05:08:52;;;;;;;5.45;1.80;;;;;;;-12.43;100.00;102807.58;1703195;84;21125;-60
2022/12/05 05:11:27;;;;;;;10.25;2.00;;;;;;;-12.41;100.00;102805.95;1702707;84;21015;-60
2022/12/05 05:13:54;;;;;;;6.75;1.85;;;;;;;-12.40;100.00;102802.60;1702787;84;21055;-65
2022/12/05 05:16:26;;;;;;;4.60;1.70;;;;;;;-12.31;100.00;102802.36;1703365;84;21033;-61
2022/12/05 05:18:53;;;;;;;6.53;1.65;;;;;;;-12.12;100.00;102799.72;1703905;84;21215;-64
2022/12/05 05:21:27;;;;;;;5.05;1.55;;;;;;;-11.90;100.00;102804.64;1704711;84;20974;-62
2022/12/05 05:23:54;;;;;;;3.27;1.40;;;;;;;-11.66;100.00;102802.87;1704246;84;21023;-63
2022/12/05 05:26:21;;;;;;;5.58;2.37;;;;;;;-11.44;100.00;102800.20;1704451;84;21149;-63
2022/12/05 05:28:49;;;;;;;5.72;2.05;;;;;;;-11.16;100.00;102795.53;1702702;84;21058;-63
2022/12/05 05:31:18;;;;;;;5.40;1.45;;;;;;;-10.87;100.00;102799.60;1703447;84;21219;-63
2022/12/05 05:33:50;;;;;;;5.35;1.67;;;;;;;-10.60;100.00;102796.54;1704171;84;21509;-64
2022/12/05 05:36:19;;;;;;;11.20;1.95;;;;;;;-10.33;100.00;102789.63;1699802;84;21026;-63
2022/12/05 05:38:49;;;;;;;3.72;1.67;;;;;;;-10.06;100.00;102777.61;1697421;84;20916;-62
2022/12/05 05:41:21;;;;;;;3.80;1.67;;;;;;;-9.81;100.00;102788.68;1703730;84;20963;-62
2022/12/05 05:43:49;;;;;;;6.17;1.77;;;;;;;-9.55;100.00;102792.61;1703362;84;21210;-63
2022/12/05 05:46:17;;;;;;;3.77;1.47;;;;;;;-9.36;100.00;102781.76;1704525;84;21104;-65
2022/12/05 05:48:46;;;;;;;3.95;1.47;;;;;;;-9.22;100.00;102780.55;1715379;81;21104;-61
2022/12/05 05:51:14;;;;;;;6.15;2.20;;;;;;;-9.09;100.00;102794.94;1715981;83;21054;-62
2022/12/05 05:53:42;;;;;;;6.12;1.87;;;;;;;-8.90;100.00;102786.98;1715093;83;21019;-63
2022/12/05 05:56:18;;;;;;;3.87;1.67;;;;;;;-8.72;100.00;102782.36;1715407;83;22503;-67
2022/12/05 05:58:45;;;;;;;3.80;1.30;;;;;;;-8.58;100.00;102784.92;1714679;83;20999;-61
2022/12/05 06:01:17;;;;;;;4.05;1.35;;;;;;;-8.45;100.00;102779.44;1717121;83;21518;-62
2022/12/05 06:03:44;;;;;;;5.72;1.98;;;;;;;-8.35;100.00;102804.70;1717153;83;21524;-63
2022/12/05 06:06:13;;;;;;;4.67;1.65;;;;;;;-8.29;100.00;102796.72;1716864;83;20895;-62
2022/12/05 06:08:42;;;;;;;4.42;1.85;;;;;;;-8.23;100.00;102789.11;1717352;83;21152;-62
2022/12/05 06:11:17;;;;;;;4.10;2.10;;;;;;;-8.13;100.00;102787.84;1717275;83;20974;-61
2022/12/05 06:13:44;;;;;;;3.85;1.72;;;;;;;-7.99;100.00;102799.63;1716392;83;21487;-62
2022/12/05 06:16:13;;;;;;;3.98;1.62;;;;;;;-7.83;100.00;102800.05;1716596;83;21060;-61
2022/12/05 06:18:40;;;;;;;6.60;3.27;;;;;;;-7.70;100.00;102787.76;1717162;82;21050;-61
2022/12/05 06:21:08;;;;;;;5.55;2.20;;;;;;;-7.59;100.00;102797.44;1717319;82;21300;-61
2022/12/05 06:23:36;;;;;;;4.75;1.80;;;;;;;-7.47;100.00;102810.91;1716941;82;21471;-65
2022/12/05 06:26:04;;;;;;;4.30;2.05;;;;;;;-7.38;100.00;102803.30;1716726;83;21493;-66
2022/12/05 06:28:31;;;;;;;4.53;1.98;;;;;;;-7.17;100.00;102808.27;1716765;83;21062;-61
2022/12/05 06:30:59;;;;;;;5.60;1.87;;;;;;;-6.99;100.00;102797.64;1717027;83;21076;-61
2022/12/05 06:33:27;;;;;;;5.97;2.25;;;;;;;-6.89;100.00;102800.13;1716454;83;21828;-62
2022/12/05 06:36:09;;;;;;;13.58;2.08;;;;;;;-6.78;100.00;102798.80;1714876;83;20955;-60
2022/12/05 06:38:36;;;;;;;5.97;2.65;;;;;;;-6.67;100.00;102800.80;1715770;83;21106;-61
2022/12/05 06:41:09;;;;;;;4.08;2.30;;;;;;;-6.49;100.00;102797.73;1729965;82;21502;-60
2022/12/05 06:43:36;;;;;;;5.00;2.17;;;;;;;-6.40;100.00;102794.72;1729941;82;21030;-61
2022/12/05 06:46:05;;;;;;;5.58;1.90;;;;;;;-6.35;100.00;102790.88;1716860;83;21161;-61
2022/12/05 06:48:33;;;;;;;5.42;2.37;;;;;;;-6.37;100.00;102796.37;1716100;83;21066;-61
2022/12/05 06:51:00;;;;;;;4.75;2.15;;;;;;;-6.40;100.00;102794.72;1716090;83;20980;-61
2022/12/05 06:53:28;;;;;;;5.72;2.42;;;;;;;-6.34;100.00;102796.78;1715412;83;20936;-62
2022/12/05 06:56:00;;;;;;;7.05;2.62;;;;;;;-6.26;100.00;102798.40;1717323;83;21108;-64
2022/12/05 06:58:27;;;;;;;6.87;2.67;;;;;;;-6.21;100.00;102788.20;1717582;83;21279;-60
2022/12/05 07:03:42;;;;;;;10.68;3.90;;;;;;;-6.13;100.00;102789.84;1716409;83;21355;-63
2022/12/05 07:06:09;;;;;;;7.92;2.98;;;;;;;-5.97;100.00;102796.88;1715920;83;21090;-61
2022/12/05 07:08:37;;;;;;;7.50;3.00;;;;;;;-5.72;100.00;102791.11;1717788;83;20942;-62
2022/12/05 07:11:05;;;;;;;7.17;3.12;;;;;;;-5.50;100.00;102798.48;1716949;83;22540;-61
2022/12/05 07:13:33;;;;;;;17.40;3.67;;;;;;;-5.48;100.00;102801.42;1717618;83;21059;-60
2022/12/05 07:16:00;;;;;;;6.53;2.27;;;;;;;-5.67;100.00;102819.84;1716971;83;20966;-61
2022/12/05 07:18:29;;;;;;;7.42;2.67;;;;;;;-5.80;100.00;102811.91;1717465;83;21025;-61
2022/12/05 07:20:59;;;;;;;5.17;2.62;;;;;;;-5.83;100.00;102800.94;1715374;83;20893;-64
2022/12/05 07:23:27;;;;;;;6.25;2.67;;;;;;;-5.80;100.00;102789.05;1716127;83;21463;-61
2022/12/05 07:25:54;;;;;;;7.08;2.50;;;;;;;-5.76;100.00;102794.51;1715776;83;20964;-64
2022/12/05 07:28:22;;;;;;;4.87;2.02;;;;;;;-5.52;100.00;102798.51;1716347;83;20996;-62
2022/12/05 07:31:06;;;;;;;5.85;2.27;;;;;;;-5.37;100.00;102786.05;1714282;82;20904;-66
2022/12/05 07:33:33;;;;;;;5.70;2.22;;;;;;;-5.44;100.00;102797.15;1716413;83;20916;-63
2022/12/05 07:36:05;;;;;;;8.85;2.72;;;;;;;-5.54;100.00;102790.05;1716642;83;22154;-64
2022/12/05 07:38:33;;;;;;;7.58;2.83;;;;;;;-5.50;100.00;102789.58;1714239;83;21278;-65
2022/12/05 07:41:15;;;;;;;4.97;2.10;;;;;;;-5.21;100.00;102784.99;1716698;83;20987;-66
2022/12/05 07:43:43;;;;;;;5.78;2.60;;;;;;;-4.98;100.00;102781.31;1715182;82;21069;-63
2022/12/05 07:46:13;;;;;;;6.17;2.20;;;;;;;-4.80;100.00;102780.22;1713251;83;21472;-63
2022/12/05 07:48:40;;;;;;;4.62;2.12;;;;;;;-4.65;100.00;102782.53;1716868;83;21159;-65
2022/12/05 07:51:08;;;;;;;5.53;2.40;;;;;;;-4.52;100.00;102776.81;1716810;83;21991;-65
2022/12/05 07:53:37;;;;;;;6.50;2.62;;;;;;;-4.48;96.06;102781.83;1716760;83;20963;-67
2022/12/05 07:56:05;;;;;;;5.85;2.27;;;;;;;-4.45;93.88;102777.12;1716919;83;21078;-66
2022/12/05 07:58:33;;;;;;;8.05;2.25;;;;;;;-4.44;90.11;102776.25;1717358;83;21031;-65
2022/12/05 08:01:16;;;;;;;6.53;2.95;;;;;;;-4.55;89.36;102778.97;1711021;83;22462;-65
2022/12/05 19:15:11;;;;;;;7.22;3.02;;;;;;;-9.72;100.00;102430.36;1800058;78;27654;-64
2022/12/05 19:17:39;;;;;;;7.53;3.00;;;;;;;-9.61;100.00;102435.41;1773735;78;21112;-62
2022/12/05 19:20:08;;;;;;;6.10;2.62;;;;;;;-9.52;100.00;102434.13;1762159;78;22308;-61
2022/12/05 19:22:35;;;;;;;5.20;2.20;;;;;;;-9.52;100.00;102431.60;1764453;79;20929;-60
2022/12/05 19:25:03;;;;;;;7.17;2.67;;;;;;;-9.49;100.00;102425.72;1758024;78;20896;-64
2022/12/05 19:27:31;;;;;;;9.45;3.02;;;;;;;-9.49;100.00;102425.72;1764324;78;20967;-60
2022/12/05 19:29:58;;;;;;;5.67;2.10;;;;;;;-9.49;100.00;102427.81;1771104;78;20939;-61
2022/12/05 19:32:27;;;;;;;7.42;2.83;;;;;;;-9.51;100.00;102427.39;1780292;79;21482;-60
2022/12/05 19:34:54;;;;;;;5.97;2.12;;;;;;;-9.53;100.00;102423.62;1759755;78;21481;-63
2022/12/05 19:37:21;;;;;;;6.05;2.80;;;;;;;-9.53;100.00;102421.52;1762958;78;20939;-60
2022/12/05 19:39:50;;;;;;;5.55;2.42;;;;;;;-9.56;100.00;102418.14;1773117;78;21112;-62
2022/12/05 19:42:18;;;;;;;6.37;2.50;;;;;;;-9.58;100.00;102419.84;1767986;79;20991;-59
2022/12/05 19:44:45;;;;;;;8.33;3.22;;;;;;;-9.59;100.00;102424.45;1776551;78;21455;-60
2022/12/05 19:47:12;;;;;;;6.65;2.65;;;;;;;-9.60;100.00;102422.77;1765062;78;21041;-65
2022/12/05 19:49:40;;;;;;;5.25;2.60;;;;;;;-9.62;100.00;102430.79;1773626;79;20959;-60
2022/12/05 19:52:07;;;;;;;6.85;2.20;;;;;;;-9.64;100.00;102432.45;1771514;78;21430;-61
2022/12/05 19:54:35;;;;;;;6.67;2.30;;;;;;;-9.65;100.00;102430.78;1753880;80;21096;-60
2022/12/05 19:57:02;;;;;;;4.92;2.10;;;;;;;-9.64;100.00;102429.09;1750500;81;21292;-64
2022/12/05 19:59:29;;;;;;;6.12;2.40;;;;;;;-9.65;100.00;102425.73;1747894;81;22341;-62
2022/12/05 20:01:58;;;;;;;5.30;1.77;;;;;;;-9.64;100.00;102422.78;1750520;81;21010;-63
2022/12/05 20:04:26;;;;;;;5.55;2.02;;;;;;;-9.64;100.00;102430.36;1750386;81;20960;-62
2022/12/05 20:06:54;;;;;;;5.22;1.70;;;;;;;-9.67;100.00;102418.57;1750386;81;20983;-61
2022/12/05 20:09:22;;;;;;;4.30;1.60;;;;;;;-9.67;100.00;102423.62;1749456;81;22484;-65
2022/12/05 20:11:52;;;;;;;6.70;1.92;;;;;;;-9.66;100.00;102418.14;1729272;81;21030;-62
2022/12/05 20:14:19;;;;;;;3.65;1.40;;;;;;;-9.66;100.00;102426.98;1753141;80;21012;-62
2022/12/05 20:16:47;;;;;;;4.33;1.87;;;;;;;-9.64;100.00;102424.05;1755873;81;20856;-61
2022/12/05 20:19:15;;;;;;;4.85;1.50;;;;;;;-9.65;100.00;102418.16;1755784;81;20932;-66
2022/12/05 20:21:43;;;;;;;4.70;1.72;;;;;;;-9.65;100.00;102419.42;1755758;81;22035;-60
2022/12/05 20:24:11;;;;;;;5.08;1.67;;;;;;;-9.66;100.00;102415.23;1755906;81;20939;-61
2022/12/05 20:26:41;;;;;;;3.20;1.50;;;;;;;-9.67;100.00;102416.47;1755417;81;20932;-61
2022/12/05 20:29:09;;;;;;;5.90;2.22;;;;;;;-9.68;100.00;102413.53;1756196;80;20944;-64
2022/12/05 20:31:39;;;;;;;5.47;1.40;;;;;;;-9.69;100.00;102409.34;1768555;80;21061;-62
2022/12/05 20:34:06;;;;;;;3.90;1.55;;;;;;;-9.69;100.00;102412.70;1756267;79;21864;-62
2022/12/05 20:36:34;;;;;;;4.75;1.50;;;;;;;-9.71;100.00;102408.48;1755369;81;20963;-62
2022/12/05 20:39:06;;;;;;;4.42;2.12;;;;;;;-9.72;100.00;102403.86;1768007;78;20986;-63
2022/12/05 20:41:34;;;;;;;4.60;1.70;;;;;;;-9.73;100.00;102405.14;1772952;80;21061;-64
2022/12/05 20:44:04;;;;;;;4.62;1.95;;;;;;;-9.74;100.00;102408.48;1774918;80;21057;-63
2022/12/05 20:46:31;;;;;;;5.12;2.20;;;;;;;-9.75;100.00;102408.06;1777797;80;21985;-64
2022/12/05 20:48:58;;;;;;;3.90;1.57;;;;;;;-9.76;100.00;102399.66;1776070;79;20848;-64
2022/12/05 20:51:29;;;;;;;5.55;1.87;;;;;;;-9.76;100.00;102397.56;1778884;79;21449;-67
2022/12/05 20:53:59;;;;;;;3.80;1.70;;;;;;;-9.77;100.00;102397.98;1767768;80;22397;-61
2022/12/05 20:56:28;;;;;;;4.78;1.60;;;;;;;-9.77;100.00;102390.42;1779363;79;20983;-61
2022/12/05 20:58:58;;;;;;;5.17;1.80;;;;;;;-9.78;100.00;102392.50;1774976;80;21144;-61
2022/12/05 21:01:26;;;;;;;6.25;2.30;;;;;;;-9.83;100.00;102391.24;1776559;80;20987;-61
2022/12/05 21:03:53;;;;;;;5.95;1.98;;;;;;;-9.82;100.00;102389.13;1765238;79;21038;-61
2022/12/05 21:06:28;;;;;;;4.55;1.77;;;;;;;-9.84;100.00;102378.64;1785131;79;20924;-61
2022/12/05 21:08:56;;;;;;;4.87;1.72;;;;;;;-9.84;100.00;102378.22;1770357;79;21532;-66
2022/12/05 21:11:24;;;;;;;4.25;1.57;;;;;;;-9.86;100.00;102376.52;1775907;80;22477;-61
2022/12/05 21:13:51;;;;;;;4.45;1.90;;;;;;;-9.87;100.00;102380.73;1771022;80;22542;-62
2022/12/05 21:16:19;;;;;;;5.33;1.70;;;;;;;-9.89;100.00;102377.36;1774024;78;21037;-62
2022/12/05 21:18:47;;;;;;;5.25;1.85;;;;;;;-9.91;100.00;102384.11;1775260;78;20924;-61
2022/12/05 21:21:20;;;;;;;5.97;1.40;;;;;;;-9.92;100.00;102382.43;1774184;78;20971;-66
2022/12/05 21:23:54;;;;;;;5.37;1.60;;;;;;;-9.91;100.00;102376.96;1745691;80;21232;-62
2022/12/05 21:26:22;;;;;;;4.30;1.30;;;;;;;-9.92;100.00;102382.43;1781831;78;20920;-62
2022/12/05 21:28:50;;;;;;;3.77;1.75;;;;;;;-9.92;100.00;102384.12;1768299;78;21450;-66
2022/12/05 21:31:23;;;;;;;5.75;1.67;;;;;;;-9.93;100.00;102383.25;1780131;78;20948;-61
2022/12/05 21:33:56;;;;;;;3.00;1.10;;;;;;;-9.95;100.00;102381.59;1774206;78;20995;-62
2022/12/05 21:36:24;;;;;;;3.90;1.40;;;;;;;-9.98;100.00;102382.84;1776510;79;21221;-60
2022/12/05 21:38:52;;;;;;;4.35;2.35;;;;;;;-10.01;100.00;102381.15;1781090;78;20978;-65
2022/12/05 21:41:20;;;;;;;5.03;1.77;;;;;;;-10.02;100.00;102383.69;1766672;78;21122;-61
2022/12/05 21:43:48;;;;;;;3.25;1.20;;;;;;;-10.03;100.00;102376.55;1769434;80;20896;-60
2022/12/05 21:46:15;;;;;;;4.80;1.62;;;;;;;-10.03;100.00;102372.76;1776195;78;21168;-60
2022/12/05 21:48:43;;;;;;;2.98;1.22;;;;;;;-10.02;100.00;102374.44;1781676;78;21465;-65
2022/12/05 21:51:11;;;;;;;3.35;1.10;;;;;;;-10.02;100.00;102371.91;1775806;80;21405;-60
2022/12/05 21:53:38;;;;;;;4.58;1.60;;;;;;;-10.03;100.00;102367.71;1773053;78;21244;-60
2022/12/05 21:56:09;;;;;;;4.72;1.90;;;;;;;-10.03;100.00;102365.62;1776048;78;21501;-60
2022/12/05 21:58:38;;;;;;;4.37;1.30;;;;;;;-10.05;100.00;102363.08;1776742;78;21065;-60
2022/12/05 22:04:18;;;;;;;3.33;1.17;;;;;;;-10.11;100.00;102363.09;1712545;82;20924;-65
2022/12/05 22:06:45;;;;;;;4.42;1.05;;;;;;;-10.15;100.00;102353.81;1713367;82;21043;-61
2022/12/05 22:09:13;;;;;;;3.87;1.62;;;;;;;-10.17;100.00;102351.73;1704790;82;20908;-61
2022/12/05 22:11:40;;;;;;;3.98;1.52;;;;;;;-10.18;100.00;102345.02;1691790;83;20884;-61
2022/12/05 22:14:07;;;;;;;4.40;1.37;;;;;;;-10.19;100.00;102349.61;1706474;82;21322;-65
2022/12/05 22:16:34;;;;;;;3.20;1.25;;;;;;;-10.21;100.00;102352.15;1677655;84;20924;-65
2022/12/05 22:19:01;;;;;;;4.92;1.72;;;;;;;-10.21;100.00;102350.05;1708074;82;21018;-61
2022/12/05 22:21:32;;;;;;;5.37;1.60;;;;;;;-10.23;100.00;102339.94;1705122;82;20947;-61
2022/12/05 22:23:59;;;;;;;4.22;1.40;;;;;;;-10.21;100.00;102346.27;1706291;82;21457;-61
2022/12/05 22:26:26;;;;;;;3.72;1.50;;;;;;;-10.24;100.00;102338.27;1688724;83;21240;-61
2022/12/05 22:28:54;;;;;;;5.30;1.50;;;;;;;-10.24;100.00;102345.83;1706867;82;20915;-60
2022/12/05 22:31:21;;;;;;;3.25;1.35;;;;;;;-10.27;100.00;102337.03;1707062;82;21995;-63
2022/12/05 22:33:48;;;;;;;4.25;1.42;;;;;;;-10.28;100.00;102330.32;1690587;84;21019;-62
2022/12/05 22:36:17;;;;;;;10.68;1.77;;;;;;;-10.31;100.00;102333.67;1707107;83;20856;-65
2022/12/05 22:38:45;;;;;;;4.70;2.00;;;;;;;-10.32;100.00;102337.47;1689026;83;21212;-65
2022/12/05 22:41:15;;;;;;;4.50;1.85;;;;;;;-10.33;100.00;102329.48;1696623;83;21480;-61
2022/12/05 22:43:43;;;;;;;4.87;1.77;;;;;;;-10.34;100.00;102327.39;1701593;83;20927;-60
2022/12/05 22:46:16;;;;;;;4.83;1.60;;;;;;;-10.33;100.00;102324.45;1690220;84;21497;-61
2022/12/05 22:48:43;;;;;;;5.05;1.30;;;;;;;-10.34;100.00;102326.13;1688716;84;20943;-63
2022/12/05 22:51:10;;;;;;;5.05;1.95;;;;;;;-10.35;100.00;102325.69;1695262;84;21638;-60
2022/12/05 22:53:37;;;;;;;3.47;1.40;;;;;;;-10.34;100.00;102322.74;1701006;83;20982;-60